createdAt,value
2023-03-05T00:01:30.139Z,7.37
2023-03-05T00:03:57.511Z,4.67
2023-03-05T00:06:28.599Z,4.93
2023-03-05T00:08:58.452Z,4.80
2023-03-05T00:11:29.933Z,4.00
2023-03-05T00:13:58.574Z,4.67
2023-03-05T00:16:26.877Z,6.33
2023-03-05T00:18:55.715Z,4.73
2023-03-05T00:21:32.698Z,5.00
2023-03-05T00:24:04.883Z,7.67
2023-03-05T00:26:34.480Z,2.87
2023-03-05T00:29:01.755Z,4.73
2023-03-05T00:31:31.364Z,6.90
2023-03-05T00:34:10.728Z,6.07
2023-03-05T00:36:50.794Z,3.20
2023-03-05T00:39:20.453Z,3.20
2023-03-05T00:41:47.768Z,4.93
2023-03-05T00:44:14.623Z,5.07
2023-03-05T00:46:41.542Z,4.50
2023-03-05T00:49:08.501Z,4.00
2023-03-05T00:51:35.458Z,3.13
2023-03-05T00:54:03.327Z,3.53
2023-03-05T00:56:30.277Z,4.20
2023-03-05T00:58:57.237Z,3.50
2023-03-05T01:01:24.703Z,8.10
2023-03-05T01:03:51.597Z,2.60
2023-03-05T01:06:18.555Z,2.87
2023-03-05T01:08:46.051Z,2.20
2023-03-05T01:11:13.541Z,2.17
2023-03-05T01:13:40.716Z,4.13
2023-03-05T01:16:08.729Z,3.00
2023-03-05T01:18:37.468Z,5.60
2023-03-05T01:21:04.926Z,2.63
2023-03-05T01:23:32.200Z,2.43
2023-03-05T01:26:00.223Z,2.43
2023-03-05T01:28:28.381Z,2.40
2023-03-05T01:30:55.524Z,4.77
2023-03-05T01:33:22.674Z,3.03
2023-03-05T01:35:50.260Z,3.90
2023-03-05T01:38:17.347Z,3.77
2023-03-05T01:40:45.266Z,2.83
2023-03-05T01:43:12.072Z,4.23
2023-03-05T01:46:17.682Z,4.10
2023-03-05T01:49:33.823Z,2.67
2023-03-05T01:52:03.635Z,2.23
2023-03-05T01:54:51.873Z,1.40
2023-03-05T01:57:24.837Z,1.67
2023-03-05T01:59:57.820Z,3.37
2023-03-05T02:02:25.878Z,3.93
2023-03-05T02:05:04.733Z,3.87
2023-03-05T02:07:33.555Z,2.70
2023-03-05T02:10:00.297Z,2.97
2023-03-05T02:12:27.150Z,3.13
2023-03-05T02:14:59.164Z,3.97
2023-03-05T02:17:28.188Z,4.00
2023-03-05T02:20:06.496Z,3.07
2023-03-05T02:22:33.322Z,3.37
2023-03-05T02:25:00.161Z,2.13
2023-03-05T02:27:35.655Z,0.97
2023-03-05T02:30:03.603Z,3.33
2023-03-05T02:32:30.396Z,2.03
2023-03-05T02:34:57.322Z,6.37
2023-03-05T02:37:24.152Z,1.97
2023-03-05T02:39:51.033Z,3.53
2023-03-05T02:42:17.833Z,5.33
2023-03-05T02:44:44.591Z,2.87
2023-03-05T02:47:11.631Z,2.60
2023-03-05T02:49:38.524Z,3.67
2023-03-05T02:52:05.794Z,6.73
2023-03-05T02:54:32.637Z,2.07
2023-03-05T02:56:59.441Z,4.83
2023-03-05T02:59:26.292Z,2.43
2023-03-05T03:01:53.042Z,4.40
2023-03-05T03:04:19.848Z,2.17
2023-03-05T03:06:46.621Z,2.90
2023-03-05T03:09:13.476Z,5.20
2023-03-05T03:11:40.301Z,5.63
2023-03-05T03:14:07.115Z,3.63
2023-03-05T03:16:34.255Z,6.33
2023-03-05T03:19:01.088Z,5.10
2023-03-05T03:21:28.007Z,4.50
2023-03-05T03:23:54.872Z,4.27
2023-03-05T03:26:21.694Z,7.97
2023-03-05T03:28:48.633Z,6.23
2023-03-05T03:31:15.658Z,5.23
2023-03-05T03:33:42.639Z,10.47
2023-03-05T03:36:09.969Z,7.43
2023-03-05T03:38:36.840Z,8.10
2023-03-05T03:41:07.969Z,8.30
2023-03-05T03:43:36.913Z,8.33
2023-03-05T03:46:08.406Z,8.07
2023-03-05T03:48:36.025Z,7.13
2023-03-05T03:51:06.741Z,7.30
2023-03-05T03:53:33.726Z,6.70
2023-03-05T03:56:00.797Z,4.73
2023-03-05T03:58:27.605Z,4.20
2023-03-05T04:00:54.344Z,7.47
2023-03-05T04:03:21.223Z,7.93
2023-03-05T04:05:48.018Z,7.43
2023-03-05T04:08:14.894Z,8.50
2023-03-05T04:10:41.937Z,8.13
2023-03-05T04:13:09.333Z,5.27
2023-03-05T04:15:36.349Z,6.47
2023-03-05T04:18:03.285Z,7.70
2023-03-05T04:20:30.101Z,9.07
2023-03-05T04:22:56.964Z,7.27
2023-03-05T04:25:23.820Z,8.63
2023-03-05T04:27:50.886Z,10.30
2023-03-05T04:30:18.231Z,10.73
2023-03-05T04:32:45.048Z,11.27
2023-03-05T04:35:11.953Z,8.57
2023-03-05T04:37:38.793Z,10.63
2023-03-05T04:40:06.583Z,10.93
2023-03-05T04:42:33.387Z,4.97
2023-03-05T04:45:00.162Z,11.17
2023-03-05T04:47:26.961Z,12.67
2023-03-05T04:49:53.885Z,9.30
2023-03-05T04:52:20.772Z,11.67
2023-03-05T04:54:47.570Z,7.03
2023-03-05T04:57:14.356Z,9.30
2023-03-05T04:59:41.232Z,8.70
2023-03-05T05:02:08.089Z,7.23
2023-03-05T05:04:36.061Z,6.47
2023-03-05T05:07:04.596Z,7.37
2023-03-05T05:09:31.373Z,3.67
2023-03-05T05:11:58.127Z,6.43
2023-03-05T05:14:25.261Z,4.17
2023-03-05T05:16:52.114Z,5.97
2023-03-05T05:19:19.101Z,4.67
2023-03-05T05:21:45.937Z,7.60
2023-03-05T05:24:13.259Z,7.50
2023-03-05T05:26:40.173Z,6.77
2023-03-05T05:29:06.970Z,5.47
2023-03-05T05:31:33.784Z,5.37
2023-03-05T05:34:00.722Z,4.83
2023-03-05T05:36:27.568Z,4.93
2023-03-05T05:38:54.489Z,7.77
2023-03-05T05:41:21.571Z,5.17
2023-03-05T05:43:48.523Z,5.53
2023-03-05T05:46:19.444Z,2.67
2023-03-05T05:48:47.185Z,5.40
2023-03-05T05:51:21.691Z,4.27
2023-03-05T05:53:49.540Z,3.33
2023-03-05T05:56:17.648Z,2.83
2023-03-05T05:58:48.068Z,5.17
2023-03-05T06:01:26.398Z,5.37
2023-03-05T06:03:53.763Z,6.30
2023-03-05T06:06:24.005Z,6.00
2023-03-05T06:08:51.850Z,5.83
2023-03-05T06:11:19.741Z,7.73
2023-03-05T06:13:48.773Z,8.90
2023-03-05T06:16:23.793Z,10.30
2023-03-05T06:18:54.496Z,12.80
2023-03-05T06:21:23.311Z,17.07
2023-03-05T06:23:52.582Z,18.60
2023-03-05T06:26:22.862Z,22.33
2023-03-05T06:28:49.912Z,20.20
2023-03-05T06:31:25.643Z,21.53
2023-03-05T06:34:01.176Z,18.47
2023-03-05T06:36:29.058Z,26.70
2023-03-05T06:38:57.528Z,25.63
2023-03-05T06:41:31.438Z,25.00
2023-03-05T06:44:02.394Z,27.63
2023-03-05T06:46:37.270Z,24.43
2023-03-05T06:49:04.533Z,26.57
2023-03-05T06:51:35.726Z,29.63
2023-03-05T06:54:07.657Z,22.87
2023-03-05T06:56:40.294Z,27.97
2023-03-05T06:59:07.679Z,24.03
2023-03-05T07:01:34.949Z,18.07
2023-03-05T07:04:03.046Z,18.90
2023-03-05T07:06:34.293Z,18.63
2023-03-05T07:09:03.269Z,17.80
2023-03-05T07:11:30.270Z,23.83
2023-03-05T07:13:57.141Z,19.93
2023-03-05T07:16:27.707Z,18.10
2023-03-05T07:18:57.030Z,23.60
2023-03-05T07:21:28.683Z,16.80
2023-03-05T07:23:57.839Z,16.37
2023-03-05T07:26:25.576Z,15.67
2023-03-05T07:28:52.820Z,16.53
2023-03-05T07:31:27.234Z,17.80
2023-03-05T07:33:54.299Z,12.93
2023-03-05T07:36:21.219Z,17.10
2023-03-05T07:38:48.167Z,16.03
2023-03-05T07:41:23.407Z,13.87
2023-03-05T07:43:55.467Z,17.37
2023-03-05T07:46:28.456Z,12.00
2023-03-05T07:48:57.541Z,18.83
2023-03-05T07:51:27.482Z,12.70
2023-03-05T07:53:57.519Z,10.80
2023-03-05T07:56:35.397Z,22.17
2023-03-05T07:59:10.690Z,26.87
2023-03-05T08:01:38.071Z,10.33
2023-03-05T08:04:06.835Z,11.30
2023-03-05T08:06:33.888Z,10.03
2023-03-05T08:09:01.052Z,9.70
2023-03-05T08:11:28.578Z,7.27
2023-03-05T08:13:56.186Z,7.53
2023-03-05T08:16:25.782Z,5.90
2023-03-05T08:18:57.386Z,7.37
2023-03-05T08:21:33.624Z,6.70
2023-03-05T08:24:07.196Z,8.53
2023-03-05T08:26:40.392Z,8.07
2023-03-05T08:29:09.506Z,8.70
2023-03-05T08:31:37.402Z,8.57
2023-03-05T08:34:06.559Z,5.50
2023-03-05T08:36:33.838Z,23.03
2023-03-05T08:39:00.912Z,20.97
2023-03-05T08:41:28.090Z,8.83
2023-03-05T08:43:55.326Z,5.87
2023-03-05T08:46:22.192Z,6.10
2023-03-05T08:48:49.197Z,5.07
2023-03-05T08:51:20.458Z,5.83
2023-03-05T08:53:48.128Z,7.27
2023-03-05T08:56:15.460Z,7.37
2023-03-05T08:58:42.455Z,3.93
2023-03-05T09:01:10.083Z,7.87
2023-03-05T09:03:36.979Z,8.13
2023-03-05T09:06:08.056Z,9.10
2023-03-05T09:08:36.543Z,6.40
2023-03-05T09:11:06.533Z,10.93
2023-03-05T09:13:33.917Z,6.33
2023-03-05T09:16:06.030Z,6.83
2023-03-05T09:18:36.458Z,6.50
2023-03-05T09:21:16.692Z,5.60
2023-03-05T09:23:44.959Z,7.90
2023-03-05T09:26:15.608Z,5.97
2023-03-05T09:28:42.694Z,6.10
2023-03-05T09:31:09.969Z,4.20
2023-03-05T09:33:38.571Z,5.90
2023-03-05T09:36:20.637Z,6.67
2023-03-05T09:38:47.628Z,4.73
2023-03-05T09:41:17.173Z,5.57
2023-03-05T09:44:04.059Z,6.90
2023-03-05T09:46:45.954Z,9.03
2023-03-05T09:49:32.125Z,10.20
2023-03-05T09:52:20.978Z,7.73
2023-03-05T09:54:55.337Z,5.63
2023-03-05T09:57:31.684Z,6.40
2023-03-05T10:00:08.839Z,8.83
2023-03-05T10:02:45.003Z,9.57
2023-03-05T10:05:26.010Z,7.73
2023-03-05T10:08:03.462Z,8.60
2023-03-05T10:10:53.111Z,6.07
2023-03-05T10:13:35.515Z,7.90
2023-03-05T10:16:45.887Z,8.83
2023-03-05T10:19:29.136Z,11.70
2023-03-05T10:22:20.877Z,11.33
2023-03-05T10:24:50.595Z,5.80
2023-03-05T10:27:33.458Z,7.37
2023-03-05T10:30:18.919Z,8.43
2023-03-05T10:33:17.914Z,6.17
2023-03-05T10:36:02.805Z,4.03
2023-03-05T10:38:53.703Z,5.80
2023-03-05T10:41:35.448Z,5.10
2023-03-05T10:44:16.476Z,7.57
2023-03-05T10:46:47.368Z,5.80
2023-03-05T10:49:29.430Z,7.70
2023-03-05T10:52:18.602Z,6.30
2023-03-05T10:54:45.610Z,4.33
2023-03-05T10:57:21.513Z,5.00
2023-03-05T11:00:01.046Z,8.33
2023-03-05T11:02:28.250Z,7.53
2023-03-05T11:04:55.077Z,6.23
2023-03-05T11:07:22.691Z,9.23
2023-03-05T11:10:03.982Z,8.30
2023-03-05T11:12:34.758Z,7.87
2023-03-05T11:15:25.180Z,10.00
2023-03-05T11:18:21.346Z,13.40
2023-03-05T11:20:48.617Z,11.80
2023-03-05T11:23:23.934Z,13.07
2023-03-05T11:26:02.344Z,10.60
2023-03-05T11:28:34.579Z,9.57
2023-03-05T11:31:25.434Z,12.90
2023-03-05T11:34:01.455Z,10.47
2023-03-05T11:36:33.953Z,14.53
2023-03-05T11:39:17.196Z,15.67
2023-03-05T11:41:49.362Z,15.83
2023-03-05T11:44:46.687Z,13.00
2023-03-05T11:47:54.489Z,10.27
2023-03-05T11:50:34.366Z,10.47
2023-03-05T11:53:17.795Z,12.23
2023-03-05T11:56:14.589Z,11.63
2023-03-05T11:58:54.514Z,15.47
2023-03-05T12:01:25.149Z,15.13
2023-03-05T12:03:53.732Z,11.43
2023-03-05T12:06:37.677Z,10.07
2023-03-05T12:09:18.648Z,9.67
2023-03-05T12:11:50.572Z,11.97
2023-03-05T12:15:12.831Z,8.17
2023-03-05T12:18:00.031Z,10.03
2023-03-05T12:20:45.587Z,10.13
2023-03-05T12:23:17.857Z,13.27
2023-03-05T12:25:59.286Z,11.17
2023-03-05T12:28:31.904Z,11.40
2023-03-05T12:31:26.155Z,12.73
2023-03-05T12:33:53.190Z,13.83
2023-03-05T12:36:22.909Z,9.97
2023-03-05T12:38:55.119Z,13.90
2023-03-05T12:41:27.440Z,10.10
2023-03-05T12:44:07.122Z,9.87
2023-03-05T12:46:36.859Z,9.10
2023-03-05T12:49:27.076Z,8.70
2023-03-05T12:51:57.267Z,9.37
2023-03-05T12:54:36.573Z,9.57
2023-03-05T12:57:20.210Z,9.63
2023-03-05T13:00:05.208Z,12.47
2023-03-05T13:02:45.707Z,12.67
2023-03-05T13:05:29.704Z,11.07
2023-03-05T13:08:26.900Z,12.23
2023-03-05T13:11:21.331Z,10.00
2023-03-05T13:13:50.315Z,13.97
2023-03-05T13:16:29.154Z,10.90
2023-03-05T13:19:01.394Z,11.67
2023-03-05T13:21:32.389Z,9.67
2023-03-05T13:24:03.179Z,10.17
2023-03-05T13:26:41.382Z,10.77
2023-03-05T13:29:18.652Z,11.43
2023-03-05T13:32:17.723Z,8.33
2023-03-05T13:34:48.124Z,7.60
2023-03-05T13:37:22.315Z,8.70
2023-03-05T13:40:04.243Z,10.47
2023-03-05T13:42:34.750Z,9.37
2023-03-05T13:45:29.727Z,9.37
2023-03-05T13:48:02.286Z,8.63
2023-03-05T13:50:37.085Z,10.63
2023-03-05T13:53:31.689Z,9.60
2023-03-05T13:56:05.896Z,12.60
2023-03-05T13:58:52.801Z,12.30
2023-03-05T14:01:37.929Z,11.77
2023-03-05T14:04:15.625Z,9.20
2023-03-05T14:06:52.135Z,11.37
2023-03-05T14:09:18.818Z,13.20
2023-03-05T14:12:05.862Z,12.03
2023-03-05T14:14:38.540Z,15.33
2023-03-05T14:17:36.535Z,16.30
2023-03-05T14:20:13.378Z,14.73
2023-03-05T14:22:46.399Z,15.57
2023-03-05T14:25:39.626Z,14.00
2023-03-05T14:28:16.892Z,16.70
2023-03-05T14:30:54.775Z,14.13
2023-03-05T14:33:32.987Z,13.67
2023-03-05T14:36:02.971Z,18.10
2023-03-05T14:38:34.583Z,15.47
2023-03-05T14:41:35.969Z,14.33
2023-03-05T14:44:10.487Z,14.17
2023-03-05T14:46:37.316Z,12.30
2023-03-05T14:49:04.195Z,14.17
2023-03-05T14:51:35.499Z,12.27
2023-03-05T14:54:02.262Z,12.77
2023-03-05T14:56:29.424Z,14.23
2023-03-05T14:58:57.703Z,10.77
2023-03-05T15:01:25.695Z,12.60
2023-03-05T15:03:52.619Z,13.37
2023-03-05T15:06:39.141Z,12.60
2023-03-05T15:09:08.122Z,11.60
2023-03-05T15:11:35.311Z,11.93
2023-03-05T15:14:02.480Z,11.93
2023-03-05T15:16:32.102Z,15.30
2023-03-05T15:18:59.307Z,15.57
2023-03-05T15:21:26.125Z,32.40
2023-03-05T15:23:52.944Z,13.07
2023-03-05T15:26:19.865Z,11.97
2023-03-05T15:28:47.057Z,12.13
2023-03-05T15:31:17.749Z,13.90
2023-03-05T15:33:44.897Z,13.13
2023-03-05T15:36:11.983Z,14.10
2023-03-05T15:38:38.937Z,15.77
2023-03-05T15:41:06.212Z,11.03
2023-03-05T15:43:33.024Z,14.30
2023-03-05T15:45:59.803Z,11.87
2023-03-05T15:48:26.660Z,14.60
2023-03-05T15:50:53.542Z,13.87
2023-03-05T15:53:22.429Z,17.03
2023-03-05T15:55:49.218Z,14.17
2023-03-05T15:58:17.514Z,17.53
2023-03-05T16:00:45.855Z,18.20
2023-03-05T16:03:12.821Z,14.43
2023-03-05T16:05:40.106Z,15.87
2023-03-05T16:08:11.261Z,13.37
2023-03-05T16:10:39.535Z,13.33
2023-03-05T16:13:15.599Z,14.33
2023-03-05T16:15:44.268Z,13.53
2023-03-05T16:18:16.168Z,14.53
2023-03-05T16:20:43.204Z,14.33
2023-03-05T16:23:10.052Z,16.37
2023-03-05T16:25:37.643Z,12.27
2023-03-05T16:28:04.764Z,12.67
2023-03-05T16:30:33.109Z,14.77
2023-03-05T16:33:00.241Z,17.23
2023-03-05T16:35:27.164Z,14.00
2023-03-05T16:37:54.149Z,17.07
2023-03-05T16:40:21.025Z,17.80
2023-03-05T16:42:47.987Z,16.97
2023-03-05T16:45:14.797Z,16.07
2023-03-05T16:47:41.815Z,17.43
2023-03-05T16:50:11.235Z,17.27
2023-03-05T16:52:38.314Z,23.47
2023-03-05T16:55:06.697Z,25.13
2023-03-05T16:57:33.660Z,23.30
2023-03-05T17:00:02.476Z,23.30
2023-03-05T17:02:29.380Z,20.17
2023-03-05T17:04:57.685Z,23.17
2023-03-05T17:07:26.462Z,21.53
2023-03-05T17:09:53.944Z,22.10
2023-03-05T17:12:23.352Z,23.10
2023-03-05T17:14:50.232Z,22.97
2023-03-05T17:17:17.111Z,22.40
2023-03-05T17:19:44.599Z,19.33
2023-03-05T17:22:12.825Z,21.27
2023-03-05T17:24:42.706Z,21.30
2023-03-05T17:27:10.979Z,20.27
2023-03-05T17:29:37.818Z,21.03
2023-03-05T17:32:05.717Z,21.47
2023-03-05T17:34:36.468Z,25.57
2023-03-05T17:37:05.661Z,21.87
2023-03-05T17:39:33.205Z,24.00
2023-03-05T17:42:00.801Z,19.70
2023-03-05T17:44:27.694Z,23.20
2023-03-05T17:46:54.568Z,20.63
2023-03-05T17:49:21.391Z,21.70
2023-03-05T17:51:48.226Z,20.33
2023-03-05T17:54:15.113Z,18.10
2023-03-05T17:56:42.287Z,19.50
2023-03-05T17:59:09.287Z,18.60
2023-03-05T18:01:36.235Z,16.83
2023-03-05T18:04:03.164Z,18.97
2023-03-05T18:06:30.085Z,18.33
2023-03-05T18:08:57.200Z,21.27
2023-03-05T18:11:24.314Z,16.80
2023-03-05T18:13:51.186Z,20.43
2023-03-05T18:16:18.189Z,19.70
2023-03-05T18:18:45.485Z,20.80
2023-03-05T18:21:12.630Z,18.63
2023-03-05T18:23:39.407Z,19.03
2023-03-05T18:26:06.153Z,17.37
2023-03-05T18:28:33.158Z,19.63
2023-03-05T18:31:01.262Z,17.97
2023-03-05T18:33:28.063Z,17.73
2023-03-05T18:35:55.116Z,19.13
2023-03-05T18:38:25.214Z,17.10
2023-03-05T18:40:53.758Z,17.20
2023-03-05T18:43:23.154Z,19.77
2023-03-05T18:45:55.575Z,15.97
2023-03-05T18:48:22.744Z,19.00
2023-03-05T18:50:52.557Z,15.50
2023-03-05T18:53:21.516Z,17.93
2023-03-05T18:55:50.927Z,17.40
2023-03-05T18:58:18.281Z,17.50
2023-03-05T19:00:47.130Z,19.77
2023-03-05T19:03:16.290Z,18.83
2023-03-05T19:05:43.649Z,20.90
2023-03-05T19:08:11.187Z,21.90
2023-03-05T19:10:38.240Z,19.47
2023-03-05T19:13:35.414Z,23.23
2023-03-05T19:16:11.261Z,24.07
2023-03-05T19:18:43.901Z,25.83
2023-03-05T19:21:10.914Z,23.03
2023-03-05T19:23:37.700Z,21.77
2023-03-05T19:26:04.724Z,27.83
2023-03-05T19:28:31.700Z,22.00
2023-03-05T19:30:58.573Z,23.07
2023-03-05T19:33:25.536Z,21.23
2023-03-05T19:35:52.490Z,24.00
2023-03-05T19:38:19.466Z,27.00
2023-03-05T19:40:47.632Z,22.47
2023-03-05T19:43:14.522Z,23.87
2023-03-05T19:45:41.341Z,25.37
2023-03-05T19:48:08.438Z,24.33
2023-03-05T19:50:35.259Z,24.83
2023-03-05T19:53:02.134Z,25.57
2023-03-05T19:55:29.022Z,27.43
2023-03-05T19:57:55.836Z,28.77
2023-03-05T20:00:26.314Z,29.40
2023-03-05T20:02:53.308Z,36.87
2023-03-05T20:05:23.036Z,37.13
2023-03-05T20:07:50.418Z,28.67
2023-03-05T20:10:17.728Z,28.13
2023-03-05T20:12:47.813Z,29.93
2023-03-05T20:15:15.104Z,29.30
2023-03-05T20:17:45.605Z,30.07
2023-03-05T20:20:17.922Z,30.97
2023-03-05T20:22:47.234Z,28.90
2023-03-05T20:25:17.594Z,28.80
2023-03-05T20:27:44.530Z,29.27
2023-03-05T20:30:15.265Z,32.07
2023-03-05T20:32:42.384Z,31.30
2023-03-05T20:35:14.824Z,29.23
2023-03-05T20:37:50.125Z,32.77
2023-03-05T20:40:17.792Z,28.73
2023-03-05T20:42:44.705Z,31.90
2023-03-05T20:45:12.254Z,34.87
2023-03-05T20:47:44.702Z,35.47
2023-03-05T20:50:14.442Z,34.87
2023-03-05T20:52:41.321Z,33.70
2023-03-05T20:55:09.623Z,34.80
2023-03-05T20:57:36.409Z,33.00
2023-03-05T21:00:05.360Z,36.20
2023-03-05T21:02:32.256Z,34.60
2023-03-05T21:04:59.111Z,33.10
2023-03-05T21:07:28.049Z,37.23
2023-03-05T21:09:54.889Z,36.30
2023-03-05T21:12:21.796Z,40.23
2023-03-05T21:14:48.625Z,34.40
2023-03-05T21:17:18.996Z,35.67
2023-03-05T21:19:46.008Z,37.20
2023-03-05T21:22:12.882Z,37.37
2023-03-05T21:24:55.538Z,32.97
2023-03-05T21:27:22.603Z,37.87
2023-03-05T21:29:50.296Z,42.60
2023-03-05T21:32:17.099Z,51.97
2023-03-05T21:34:44.082Z,51.77
2023-03-05T21:37:11.499Z,43.20
2023-03-05T21:39:38.541Z,38.67
2023-03-05T21:42:05.486Z,37.97
2023-03-05T21:44:32.291Z,36.80
2023-03-05T21:46:59.061Z,40.20
2023-03-05T21:49:26.578Z,36.23
2023-03-05T21:52:09.348Z,38.40
2023-03-05T21:54:41.368Z,37.90
2023-03-05T21:57:11.189Z,44.50
2023-03-05T21:59:42.663Z,42.03
2023-03-05T22:02:15.012Z,43.37
2023-03-05T22:04:41.970Z,38.80
2023-03-05T22:07:09.054Z,44.23
2023-03-05T22:09:35.954Z,40.73
2023-03-05T22:12:04.665Z,40.97
2023-03-05T22:14:31.458Z,41.10
2023-03-05T22:17:02.171Z,39.97
2023-03-05T22:19:30.194Z,37.93
2023-03-05T22:21:57.660Z,41.17
2023-03-05T22:24:27.580Z,43.67
2023-03-05T22:26:54.428Z,40.93
2023-03-05T22:29:21.216Z,40.07
2023-03-05T22:31:48.086Z,38.10
2023-03-05T22:34:14.823Z,40.50
2023-03-05T22:36:41.697Z,36.77
2023-03-05T22:39:08.535Z,37.83
2023-03-05T22:41:35.349Z,34.80
2023-03-05T22:44:02.237Z,36.47
2023-03-05T22:46:29.088Z,35.23
2023-03-05T22:48:56.058Z,38.20
2023-03-05T22:51:23.180Z,38.03
2023-03-05T22:53:49.981Z,32.57
2023-03-05T22:56:20.000Z,34.93
2023-03-05T22:58:47.736Z,33.07
2023-03-05T23:01:21.983Z,36.03
2023-03-05T23:03:54.775Z,34.30
2023-03-05T23:06:21.613Z,33.47
2023-03-05T23:08:48.392Z,35.17
2023-03-05T23:11:15.210Z,32.87
2023-03-05T23:13:42.254Z,33.03
2023-03-05T23:16:09.755Z,35.67
2023-03-05T23:18:37.191Z,32.30
2023-03-05T23:21:04.189Z,34.63
2023-03-05T23:23:31.062Z,32.60
2023-03-05T23:25:57.923Z,31.43
2023-03-05T23:28:24.815Z,32.93
2023-03-05T23:30:51.828Z,30.90
2023-03-05T23:33:23.022Z,32.43
2023-03-05T23:35:57.175Z,30.23
2023-03-05T23:38:26.547Z,27.80
2023-03-05T23:40:59.663Z,27.93
2023-03-05T23:43:27.600Z,24.83
2023-03-05T23:45:55.074Z,28.73
2023-03-05T23:48:24.872Z,29.67
2023-03-05T23:50:52.559Z,27.53
2023-03-05T23:53:23.977Z,27.50
2023-03-05T23:55:51.842Z,28.13
2023-03-05T23:58:22.651Z,25.50
